sensor_id;sensor_type;location;lat;lon;timestamp;P1;durP1;ratioP1;P2;durP2;ratioP2
33427;SDS011;19769;48.150;16.306;2022-10-16T00:01:06;47.70;;;36.38;;
33427;SDS011;19769;48.150;16.306;2022-10-16T00:03:33;45.80;;;36.60;;
33427;SDS011;19769;48.150;16.306;2022-10-16T00:06:00;46.83;;;36.47;;
33427;SDS011;19769;48.150;16.306;2022-10-16T00:08:26;44.30;;;35.90;;
33427;SDS011;19769;48.150;16.306;2022-10-16T00:10:52;47.25;;;37.33;;
33427;SDS011;19769;48.150;16.306;2022-10-16T00:13:18;44.65;;;35.53;;
33427;SDS011;19769;48.150;16.306;2022-10-16T00:15:45;45.22;;;34.90;;
33427;SDS011;19769;48.150;16.306;2022-10-16T00:18:12;45.53;;;35.92;;
33427;SDS011;19769;48.150;16.306;2022-10-16T00:20:39;41.35;;;33.78;;
33427;SDS011;19769;48.150;16.306;2022-10-16T00:23:05;44.35;;;35.08;;
33427;SDS011;19769;48.150;16.306;2022-10-16T00:25:31;42.83;;;34.38;;
33427;SDS011;19769;48.150;16.306;2022-10-16T00:28:01;40.20;;;32.35;;
33427;SDS011;19769;48.150;16.306;2022-10-16T00:30:27;40.90;;;33.15;;
33427;SDS011;19769;48.150;16.306;2022-10-16T00:32:54;39.65;;;32.45;;
33427;SDS011;19769;48.150;16.306;2022-10-16T00:35:20;39.15;;;32.25;;
33427;SDS011;19769;48.150;16.306;2022-10-16T00:37:46;42.05;;;33.72;;
33427;SDS011;19769;48.150;16.306;2022-10-16T00:40:11;40.50;;;32.97;;
33427;SDS011;19769;48.150;16.306;2022-10-16T00:42:38;38.50;;;31.65;;
33427;SDS011;19769;48.150;16.306;2022-10-16T00:45:04;40.55;;;32.83;;
33427;SDS011;19769;48.150;16.306;2022-10-16T00:47:32;38.63;;;32.85;;
33427;SDS011;19769;48.150;16.306;2022-10-16T00:50:08;38.33;;;32.33;;
33427;SDS011;19769;48.150;16.306;2022-10-16T00:52:39;40.97;;;33.42;;
33427;SDS011;19769;48.150;16.306;2022-10-16T00:55:09;41.58;;;33.30;;
33427;SDS011;19769;48.150;16.306;2022-10-16T00:57:35;41.13;;;33.88;;
33427;SDS011;19769;48.150;16.306;2022-10-16T01:00:04;38.88;;;32.65;;
33427;SDS011;19769;48.150;16.306;2022-10-16T01:02:32;38.65;;;32.45;;
33427;SDS011;19769;48.150;16.306;2022-10-16T01:04:58;38.10;;;31.95;;
33427;SDS011;19769;48.150;16.306;2022-10-16T01:13:12;37.20;;;31.42;;
33427;SDS011;19769;48.150;16.306;2022-10-16T01:18:56;37.60;;;31.00;;
33427;SDS011;19769;48.150;16.306;2022-10-16T01:21:32;38.33;;;31.55;;
33427;SDS011;19769;48.150;16.306;2022-10-16T01:24:06;36.85;;;30.55;;
33427;SDS011;19769;48.150;16.306;2022-10-16T01:32:28;36.13;;;30.60;;
33427;SDS011;19769;48.150;16.306;2022-10-16T01:40:38;36.88;;;30.13;;
33427;SDS011;19769;48.150;16.306;2022-10-16T01:43:08;34.50;;;28.80;;
33427;SDS011;19769;48.150;16.306;2022-10-16T01:45:50;34.95;;;29.25;;
33427;SDS011;19769;48.150;16.306;2022-10-16T01:48:18;35.55;;;29.27;;
33427;SDS011;19769;48.150;16.306;2022-10-16T01:50:52;34.33;;;27.73;;
33427;SDS011;19769;48.150;16.306;2022-10-16T01:53:24;33.25;;;28.13;;
33427;SDS011;19769;48.150;16.306;2022-10-16T01:55:51;34.08;;;28.35;;
33427;SDS011;19769;48.150;16.306;2022-10-16T01:58:19;33.95;;;28.75;;
33427;SDS011;19769;48.150;16.306;2022-10-16T02:00:46;34.53;;;29.13;;
33427;SDS011;19769;48.150;16.306;2022-10-16T02:03:13;33.67;;;27.75;;
33427;SDS011;19769;48.150;16.306;2022-10-16T02:05:41;34.30;;;28.90;;
33427;SDS011;19769;48.150;16.306;2022-10-16T02:08:08;33.53;;;27.90;;
33427;SDS011;19769;48.150;16.306;2022-10-16T02:10:35;35.58;;;29.55;;
33427;SDS011;19769;48.150;16.306;2022-10-16T02:13:09;33.05;;;28.08;;
33427;SDS011;19769;48.150;16.306;2022-10-16T02:15:36;34.85;;;29.15;;
33427;SDS011;19769;48.150;16.306;2022-10-16T02:18:03;35.10;;;29.25;;
33427;SDS011;19769;48.150;16.306;2022-10-16T02:20:30;33.00;;;28.58;;
33427;SDS011;19769;48.150;16.306;2022-10-16T02:22:58;33.63;;;28.52;;
33427;SDS011;19769;48.150;16.306;2022-10-16T02:30:39;34.40;;;29.08;;
33427;SDS011;19769;48.150;16.306;2022-10-16T02:33:07;34.05;;;28.48;;
33427;SDS011;19769;48.150;16.306;2022-10-16T02:35:36;35.42;;;28.50;;
33427;SDS011;19769;48.150;16.306;2022-10-16T02:38:03;33.85;;;28.10;;
33427;SDS011;19769;48.150;16.306;2022-10-16T02:40:29;35.03;;;29.40;;
33427;SDS011;19769;48.150;16.306;2022-10-16T02:42:56;33.35;;;27.77;;
33427;SDS011;19769;48.150;16.306;2022-10-16T02:45:23;34.60;;;28.27;;
33427;SDS011;19769;48.150;16.306;2022-10-16T02:47:50;34.63;;;28.02;;
33427;SDS011;19769;48.150;16.306;2022-10-16T02:50:16;34.53;;;27.63;;
33427;SDS011;19769;48.150;16.306;2022-10-16T02:52:43;35.15;;;28.10;;
33427;SDS011;19769;48.150;16.306;2022-10-16T02:55:09;36.90;;;29.17;;
33427;SDS011;19769;48.150;16.306;2022-10-16T02:57:35;36.05;;;28.13;;
33427;SDS011;19769;48.150;16.306;2022-10-16T03:00:03;37.50;;;29.13;;
33427;SDS011;19769;48.150;16.306;2022-10-16T03:02:29;34.15;;;28.05;;
33427;SDS011;19769;48.150;16.306;2022-10-16T03:04:56;35.60;;;29.00;;
33427;SDS011;19769;48.150;16.306;2022-10-16T03:07:22;34.17;;;27.73;;
33427;SDS011;19769;48.150;16.306;2022-10-16T03:09:48;34.50;;;28.48;;
33427;SDS011;19769;48.150;16.306;2022-10-16T03:12:14;36.53;;;29.38;;
33427;SDS011;19769;48.150;16.306;2022-10-16T03:14:40;35.80;;;28.42;;
33427;SDS011;19769;48.150;16.306;2022-10-16T03:17:06;34.20;;;28.15;;
33427;SDS011;19769;48.150;16.306;2022-10-16T03:19:32;34.60;;;27.85;;
33427;SDS011;19769;48.150;16.306;2022-10-16T03:21:59;33.05;;;27.27;;
33427;SDS011;19769;48.150;16.306;2022-10-16T03:24:25;34.95;;;28.30;;
33427;SDS011;19769;48.150;16.306;2022-10-16T03:26:52;34.92;;;28.67;;
33427;SDS011;19769;48.150;16.306;2022-10-16T03:29:18;34.08;;;27.88;;
33427;SDS011;19769;48.150;16.306;2022-10-16T03:31:44;33.13;;;27.48;;
33427;SDS011;19769;48.150;16.306;2022-10-16T03:34:10;32.63;;;27.15;;
33427;SDS011;19769;48.150;16.306;2022-10-16T03:36:36;33.83;;;27.00;;
33427;SDS011;19769;48.150;16.306;2022-10-16T03:39:02;36.15;;;27.95;;
33427;SDS011;19769;48.150;16.306;2022-10-16T03:41:29;34.10;;;27.20;;
33427;SDS011;19769;48.150;16.306;2022-10-16T03:43:55;33.05;;;27.20;;
33427;SDS011;19769;48.150;16.306;2022-10-16T03:46:21;34.75;;;27.20;;
33427;SDS011;19769;48.150;16.306;2022-10-16T03:48:47;33.15;;;26.35;;
33427;SDS011;19769;48.150;16.306;2022-10-16T03:51:14;33.17;;;27.15;;
33427;SDS011;19769;48.150;16.306;2022-10-16T03:53:40;32.45;;;26.92;;
33427;SDS011;19769;48.150;16.306;2022-10-16T03:56:06;32.95;;;26.95;;
33427;SDS011;19769;48.150;16.306;2022-10-16T03:58:32;31.38;;;26.80;;
33427;SDS011;19769;48.150;16.306;2022-10-16T04:00:59;31.38;;;26.05;;
33427;SDS011;19769;48.150;16.306;2022-10-16T04:03:25;32.22;;;26.80;;
33427;SDS011;19769;48.150;16.306;2022-10-16T04:05:51;29.45;;;24.55;;
33427;SDS011;19769;48.150;16.306;2022-10-16T04:08:17;28.02;;;24.75;;
33427;SDS011;19769;48.150;16.306;2022-10-16T04:10:44;28.25;;;25.08;;
33427;SDS011;19769;48.150;16.306;2022-10-16T04:13:11;28.45;;;25.08;;
33427;SDS011;19769;48.150;16.306;2022-10-16T04:15:37;25.77;;;23.00;;
33427;SDS011;19769;48.150;16.306;2022-10-16T04:18:04;27.50;;;24.50;;
33427;SDS011;19769;48.150;16.306;2022-10-16T04:20:32;27.90;;;24.90;;
33427;SDS011;19769;48.150;16.306;2022-10-16T04:22:58;29.73;;;25.13;;
33427;SDS011;19769;48.150;16.306;2022-10-16T04:25:25;28.42;;;25.33;;
33427;SDS011;19769;48.150;16.306;2022-10-16T04:27:52;28.02;;;24.98;;
33427;SDS011;19769;48.150;16.306;2022-10-16T04:30:19;29.95;;;26.00;;
33427;SDS011;19769;48.150;16.306;2022-10-16T04:32:48;28.90;;;25.30;;
33427;SDS011;19769;48.150;16.306;2022-10-16T04:35:15;28.25;;;24.80;;
33427;SDS011;19769;48.150;16.306;2022-10-16T04:37:41;28.90;;;25.40;;
33427;SDS011;19769;48.150;16.306;2022-10-16T04:40:07;28.08;;;24.50;;
33427;SDS011;19769;48.150;16.306;2022-10-16T04:42:33;28.42;;;25.05;;
33427;SDS011;19769;48.150;16.306;2022-10-16T04:45:00;28.17;;;25.08;;
33427;SDS011;19769;48.150;16.306;2022-10-16T04:47:26;27.25;;;24.17;;
33427;SDS011;19769;48.150;16.306;2022-10-16T04:49:52;28.27;;;24.83;;
33427;SDS011;19769;48.150;16.306;2022-10-16T04:52:18;27.15;;;23.70;;
33427;SDS011;19769;48.150;16.306;2022-10-16T04:54:46;28.23;;;24.83;;
33427;SDS011;19769;48.150;16.306;2022-10-16T04:57:12;27.08;;;23.77;;
33427;SDS011;19769;48.150;16.306;2022-10-16T04:59:39;27.10;;;23.75;;
33427;SDS011;19769;48.150;16.306;2022-10-16T05:02:05;27.42;;;23.25;;
33427;SDS011;19769;48.150;16.306;2022-10-16T05:04:31;26.95;;;23.77;;
33427;SDS011;19769;48.150;16.306;2022-10-16T05:06:57;27.80;;;23.17;;
33427;SDS011;19769;48.150;16.306;2022-10-16T05:09:23;27.25;;;23.27;;
33427;SDS011;19769;48.150;16.306;2022-10-16T05:11:49;25.75;;;22.75;;
33427;SDS011;19769;48.150;16.306;2022-10-16T05:14:15;26.45;;;23.23;;
33427;SDS011;19769;48.150;16.306;2022-10-16T05:16:42;25.52;;;22.85;;
33427;SDS011;19769;48.150;16.306;2022-10-16T05:19:08;26.80;;;23.17;;
33427;SDS011;19769;48.150;16.306;2022-10-16T05:21:34;26.33;;;22.75;;
33427;SDS011;19769;48.150;16.306;2022-10-16T05:24:00;25.85;;;22.83;;
33427;SDS011;19769;48.150;16.306;2022-10-16T05:26:26;26.83;;;23.38;;
33427;SDS011;19769;48.150;16.306;2022-10-16T05:28:52;26.48;;;22.45;;
33427;SDS011;19769;48.150;16.306;2022-10-16T05:31:19;25.85;;;22.63;;
33427;SDS011;19769;48.150;16.306;2022-10-16T05:33:45;25.73;;;22.70;;
33427;SDS011;19769;48.150;16.306;2022-10-16T05:36:11;25.27;;;22.50;;
33427;SDS011;19769;48.150;16.306;2022-10-16T05:38:38;24.90;;;22.20;;
33427;SDS011;19769;48.150;16.306;2022-10-16T05:41:05;24.85;;;21.73;;
33427;SDS011;19769;48.150;16.306;2022-10-16T05:43:31;24.50;;;21.75;;
33427;SDS011;19769;48.150;16.306;2022-10-16T05:45:59;24.77;;;21.98;;
33427;SDS011;19769;48.150;16.306;2022-10-16T05:48:25;24.15;;;21.50;;
33427;SDS011;19769;48.150;16.306;2022-10-16T05:50:59;25.23;;;21.60;;
33427;SDS011;19769;48.150;16.306;2022-10-16T05:53:26;25.42;;;21.73;;
33427;SDS011;19769;48.150;16.306;2022-10-16T05:55:53;24.42;;;21.25;;
33427;SDS011;19769;48.150;16.306;2022-10-16T05:58:19;23.10;;;20.23;;
33427;SDS011;19769;48.150;16.306;2022-10-16T06:00:52;22.77;;;20.27;;
33427;SDS011;19769;48.150;16.306;2022-10-16T06:03:18;25.40;;;21.92;;
33427;SDS011;19769;48.150;16.306;2022-10-16T06:05:45;23.90;;;20.40;;
33427;SDS011;19769;48.150;16.306;2022-10-16T06:08:11;23.27;;;20.45;;
33427;SDS011;19769;48.150;16.306;2022-10-16T06:10:38;23.17;;;19.52;;
33427;SDS011;19769;48.150;16.306;2022-10-16T06:13:04;22.27;;;19.77;;
33427;SDS011;19769;48.150;16.306;2022-10-16T06:15:30;21.45;;;19.13;;
33427;SDS011;19769;48.150;16.306;2022-10-16T06:17:56;28.80;;;19.98;;
33427;SDS011;19769;48.150;16.306;2022-10-16T06:20:22;24.83;;;19.85;;
33427;SDS011;19769;48.150;16.306;2022-10-16T06:22:49;25.80;;;19.20;;
33427;SDS011;19769;48.150;16.306;2022-10-16T06:25:15;27.42;;;19.65;;
33427;SDS011;19769;48.150;16.306;2022-10-16T06:27:41;32.40;;;21.92;;
33427;SDS011;19769;48.150;16.306;2022-10-16T06:30:07;30.73;;;22.42;;
33427;SDS011;19769;48.150;16.306;2022-10-16T06:32:34;33.00;;;22.48;;
33427;SDS011;19769;48.150;16.306;2022-10-16T06:35:00;31.58;;;23.55;;
33427;SDS011;19769;48.150;16.306;2022-10-16T06:37:26;33.63;;;24.95;;
33427;SDS011;19769;48.150;16.306;2022-10-16T06:39:53;31.40;;;24.00;;
33427;SDS011;19769;48.150;16.306;2022-10-16T06:42:19;31.20;;;23.88;;
33427;SDS011;19769;48.150;16.306;2022-10-16T06:44:45;32.80;;;23.80;;
33427;SDS011;19769;48.150;16.306;2022-10-16T06:47:11;32.88;;;24.10;;
33427;SDS011;19769;48.150;16.306;2022-10-16T06:49:37;33.28;;;24.73;;
33427;SDS011;19769;48.150;16.306;2022-10-16T06:52:03;34.72;;;24.80;;
33427;SDS011;19769;48.150;16.306;2022-10-16T06:54:30;34.95;;;24.67;;
33427;SDS011;19769;48.150;16.306;2022-10-16T06:56:58;36.08;;;25.83;;
33427;SDS011;19769;48.150;16.306;2022-10-16T06:59:27;35.95;;;25.85;;
33427;SDS011;19769;48.150;16.306;2022-10-16T07:01:53;36.38;;;26.38;;
33427;SDS011;19769;48.150;16.306;2022-10-16T07:04:19;39.22;;;26.88;;
33427;SDS011;19769;48.150;16.306;2022-10-16T07:06:45;38.03;;;27.35;;
33427;SDS011;19769;48.150;16.306;2022-10-16T07:09:11;37.83;;;26.35;;
33427;SDS011;19769;48.150;16.306;2022-10-16T07:11:38;37.00;;;27.60;;
33427;SDS011;19769;48.150;16.306;2022-10-16T07:14:04;38.83;;;26.80;;
33427;SDS011;19769;48.150;16.306;2022-10-16T07:16:31;36.13;;;26.67;;
33427;SDS011;19769;48.150;16.306;2022-10-16T07:18:58;40.38;;;28.98;;
33427;SDS011;19769;48.150;16.306;2022-10-16T07:21:29;38.10;;;27.00;;
33427;SDS011;19769;48.150;16.306;2022-10-16T07:23:57;37.25;;;27.67;;
33427;SDS011;19769;48.150;16.306;2022-10-16T07:26:23;37.80;;;29.00;;
33427;SDS011;19769;48.150;16.306;2022-10-16T07:28:50;39.65;;;28.75;;
33427;SDS011;19769;48.150;16.306;2022-10-16T07:31:18;36.22;;;28.50;;
33427;SDS011;19769;48.150;16.306;2022-10-16T07:33:45;37.45;;;28.50;;
33427;SDS011;19769;48.150;16.306;2022-10-16T07:36:13;36.22;;;28.50;;
33427;SDS011;19769;48.150;16.306;2022-10-16T07:38:39;36.25;;;27.90;;
33427;SDS011;19769;48.150;16.306;2022-10-16T07:41:08;37.28;;;28.33;;
33427;SDS011;19769;48.150;16.306;2022-10-16T07:43:35;34.60;;;26.55;;
33427;SDS011;19769;48.150;16.306;2022-10-16T07:46:01;35.75;;;27.02;;
33427;SDS011;19769;48.150;16.306;2022-10-16T07:48:29;35.47;;;27.80;;
33427;SDS011;19769;48.150;16.306;2022-10-16T07:51:02;38.05;;;29.40;;
33427;SDS011;19769;48.150;16.306;2022-10-16T07:53:28;35.85;;;27.63;;
33427;SDS011;19769;48.150;16.306;2022-10-16T07:56:02;39.08;;;28.85;;
33427;SDS011;19769;48.150;16.306;2022-10-16T07:58:29;47.05;;;33.08;;
33427;SDS011;19769;48.150;16.306;2022-10-16T08:00:56;40.17;;;30.10;;
33427;SDS011;19769;48.150;16.306;2022-10-16T08:03:23;38.08;;;28.45;;
33427;SDS011;19769;48.150;16.306;2022-10-16T08:05:51;40.22;;;29.60;;
33427;SDS011;19769;48.150;16.306;2022-10-16T08:08:17;40.13;;;30.05;;
33427;SDS011;19769;48.150;16.306;2022-10-16T08:10:44;39.38;;;29.27;;
33427;SDS011;19769;48.150;16.306;2022-10-16T08:13:10;41.67;;;29.10;;
33427;SDS011;19769;48.150;16.306;2022-10-16T08:15:37;40.53;;;30.20;;
33427;SDS011;19769;48.150;16.306;2022-10-16T08:18:04;38.67;;;29.25;;
33427;SDS011;19769;48.150;16.306;2022-10-16T08:20:33;38.20;;;29.40;;
33427;SDS011;19769;48.150;16.306;2022-10-16T08:22:59;36.58;;;28.38;;
33427;SDS011;19769;48.150;16.306;2022-10-16T08:25:26;36.97;;;27.70;;
33427;SDS011;19769;48.150;16.306;2022-10-16T08:27:52;34.67;;;26.67;;
33427;SDS011;19769;48.150;16.306;2022-10-16T08:30:19;38.15;;;29.48;;
33427;SDS011;19769;48.150;16.306;2022-10-16T08:32:46;34.72;;;27.25;;
33427;SDS011;19769;48.150;16.306;2022-10-16T08:35:12;34.45;;;26.42;;
33427;SDS011;19769;48.150;16.306;2022-10-16T08:37:40;33.72;;;26.13;;
33427;SDS011;19769;48.150;16.306;2022-10-16T08:40:07;33.05;;;26.00;;
33427;SDS011;19769;48.150;16.306;2022-10-16T08:45:11;37.03;;;28.95;;
33427;SDS011;19769;48.150;16.306;2022-10-16T08:50:14;31.83;;;25.25;;
33427;SDS011;19769;48.150;16.306;2022-10-16T08:52:52;39.22;;;29.67;;
33427;SDS011;19769;48.150;16.306;2022-10-16T08:55:29;37.60;;;29.50;;
33427;SDS011;19769;48.150;16.306;2022-10-16T08:57:58;34.28;;;26.67;;
33427;SDS011;19769;48.150;16.306;2022-10-16T09:00:25;34.13;;;27.15;;
33427;SDS011;19769;48.150;16.306;2022-10-16T09:08:39;31.13;;;25.40;;
33427;SDS011;19769;48.150;16.306;2022-10-16T09:21:16;33.20;;;26.83;;
33427;SDS011;19769;48.150;16.306;2022-10-16T09:23:43;32.00;;;26.13;;
33427;SDS011;19769;48.150;16.306;2022-10-16T09:26:11;36.13;;;27.13;;
33427;SDS011;19769;48.150;16.306;2022-10-16T09:28:37;35.90;;;27.30;;
33427;SDS011;19769;48.150;16.306;2022-10-16T09:31:04;33.95;;;26.88;;
33427;SDS011;19769;48.150;16.306;2022-10-16T09:33:36;35.53;;;27.30;;
33427;SDS011;19769;48.150;16.306;2022-10-16T09:36:04;33.30;;;27.33;;
33427;SDS011;19769;48.150;16.306;2022-10-16T09:38:32;38.90;;;28.90;;
33427;SDS011;19769;48.150;16.306;2022-10-16T09:41:03;37.95;;;29.15;;
33427;SDS011;19769;48.150;16.306;2022-10-16T09:43:39;37.92;;;29.80;;
33427;SDS011;19769;48.150;16.306;2022-10-16T09:46:07;40.72;;;30.67;;
33427;SDS011;19769;48.150;16.306;2022-10-16T09:48:37;42.78;;;32.05;;
33427;SDS011;19769;48.150;16.306;2022-10-16T09:51:06;41.85;;;31.10;;
33427;SDS011;19769;48.150;16.306;2022-10-16T09:56:05;46.10;;;33.43;;
33427;SDS011;19769;48.150;16.306;2022-10-16T09:58:35;47.08;;;34.40;;
33427;SDS011;19769;48.150;16.306;2022-10-16T10:01:04;46.72;;;34.28;;
33427;SDS011;19769;48.150;16.306;2022-10-16T10:03:36;46.75;;;34.00;;
33427;SDS011;19769;48.150;16.306;2022-10-16T10:06:22;44.55;;;33.47;;
33427;SDS011;19769;48.150;16.306;2022-10-16T10:09:04;47.40;;;34.47;;
33427;SDS011;19769;48.150;16.306;2022-10-16T10:11:37;46.90;;;33.33;;
33427;SDS011;19769;48.150;16.306;2022-10-16T10:16:49;39.58;;;30.95;;
33427;SDS011;19769;48.150;16.306;2022-10-16T10:19:20;41.33;;;31.70;;
33427;SDS011;19769;48.150;16.306;2022-10-16T10:21:46;47.70;;;35.38;;
33427;SDS011;19769;48.150;16.306;2022-10-16T10:24:14;52.15;;;36.42;;
33427;SDS011;19769;48.150;16.306;2022-10-16T10:27:03;46.97;;;34.65;;
33427;SDS011;19769;48.150;16.306;2022-10-16T10:32:21;44.15;;;32.25;;
33427;SDS011;19769;48.150;16.306;2022-10-16T10:42:57;50.15;;;37.22;;
33427;SDS011;19769;48.150;16.306;2022-10-16T10:45:26;49.00;;;36.78;;
33427;SDS011;19769;48.150;16.306;2022-10-16T10:47:59;50.28;;;37.35;;
33427;SDS011;19769;48.150;16.306;2022-10-16T10:50:39;49.88;;;37.33;;
33427;SDS011;19769;48.150;16.306;2022-10-16T10:53:18;49.90;;;36.83;;
33427;SDS011;19769;48.150;16.306;2022-10-16T10:58:33;45.70;;;35.72;;
33427;SDS011;19769;48.150;16.306;2022-10-16T11:01:08;42.88;;;32.20;;
33427;SDS011;19769;48.150;16.306;2022-10-16T11:06:20;39.60;;;31.13;;
33427;SDS011;19769;48.150;16.306;2022-10-16T11:08:58;38.53;;;29.80;;
33427;SDS011;19769;48.150;16.306;2022-10-16T11:11:31;43.78;;;32.28;;
33427;SDS011;19769;48.150;16.306;2022-10-16T11:14:24;40.80;;;31.73;;
33427;SDS011;19769;48.150;16.306;2022-10-16T11:17:00;41.72;;;31.42;;
33427;SDS011;19769;48.150;16.306;2022-10-16T11:22:22;39.72;;;30.75;;
33427;SDS011;19769;48.150;16.306;2022-10-16T11:27:21;40.38;;;30.85;;
33427;SDS011;19769;48.150;16.306;2022-10-16T11:29:52;40.00;;;31.15;;
33427;SDS011;19769;48.150;16.306;2022-10-16T11:32:31;43.78;;;31.70;;
33427;SDS011;19769;48.150;16.306;2022-10-16T11:35:05;43.03;;;32.38;;
33427;SDS011;19769;48.150;16.306;2022-10-16T11:37:41;42.90;;;33.53;;
33427;SDS011;19769;48.150;16.306;2022-10-16T11:43:10;41.72;;;32.55;;
33427;SDS011;19769;48.150;16.306;2022-10-16T11:45:50;44.03;;;32.67;;
33427;SDS011;19769;48.150;16.306;2022-10-16T11:48:32;41.13;;;31.67;;
33427;SDS011;19769;48.150;16.306;2022-10-16T11:51:05;42.88;;;33.03;;
33427;SDS011;19769;48.150;16.306;2022-10-16T11:53:40;38.55;;;30.30;;
33427;SDS011;19769;48.150;16.306;2022-10-16T11:56:26;37.10;;;29.48;;
33427;SDS011;19769;48.150;16.306;2022-10-16T11:59:14;34.05;;;27.40;;
33427;SDS011;19769;48.150;16.306;2022-10-16T12:01:44;36.10;;;28.30;;
33427;SDS011;19769;48.150;16.306;2022-10-16T12:04:14;33.97;;;28.40;;
33427;SDS011;19769;48.150;16.306;2022-10-16T12:09:30;29.95;;;24.77;;
33427;SDS011;19769;48.150;16.306;2022-10-16T12:11:57;27.95;;;23.75;;
33427;SDS011;19769;48.150;16.306;2022-10-16T12:19:19;28.08;;;25.02;;
33427;SDS011;19769;48.150;16.306;2022-10-16T12:21:46;29.17;;;24.90;;
33427;SDS011;19769;48.150;16.306;2022-10-16T12:26:58;28.40;;;25.40;;
33427;SDS011;19769;48.150;16.306;2022-10-16T12:34:26;27.90;;;25.00;;
33427;SDS011;19769;48.150;16.306;2022-10-16T12:36:53;27.38;;;24.52;;
33427;SDS011;19769;48.150;16.306;2022-10-16T12:39:21;27.25;;;24.40;;
33427;SDS011;19769;48.150;16.306;2022-10-16T12:41:48;26.33;;;23.70;;
33427;SDS011;19769;48.150;16.306;2022-10-16T12:44:23;27.45;;;24.70;;
33427;SDS011;19769;48.150;16.306;2022-10-16T12:46:51;26.40;;;23.80;;
33427;SDS011;19769;48.150;16.306;2022-10-16T12:51:46;27.58;;;24.88;;
33427;SDS011;19769;48.150;16.306;2022-10-16T12:54:19;26.05;;;23.35;;
33427;SDS011;19769;48.150;16.306;2022-10-16T13:09:42;29.25;;;26.10;;
33427;SDS011;19769;48.150;16.306;2022-10-16T13:12:18;27.92;;;25.05;;
33427;SDS011;19769;48.150;16.306;2022-10-16T13:17:22;26.27;;;23.67;;
33427;SDS011;19769;48.150;16.306;2022-10-16T13:22:47;27.75;;;25.05;;
33427;SDS011;19769;48.150;16.306;2022-10-16T13:30:29;27.13;;;24.48;;
33427;SDS011;19769;48.150;16.306;2022-10-16T13:33:01;29.30;;;25.88;;
33427;SDS011;19769;48.150;16.306;2022-10-16T13:35:29;29.08;;;26.08;;
33427;SDS011;19769;48.150;16.306;2022-10-16T13:38:05;29.73;;;26.83;;
33427;SDS011;19769;48.150;16.306;2022-10-16T13:40:32;33.28;;;30.00;;
33427;SDS011;19769;48.150;16.306;2022-10-16T13:42:59;29.67;;;26.60;;
33427;SDS011;19769;48.150;16.306;2022-10-16T13:45:26;29.23;;;26.23;;
33427;SDS011;19769;48.150;16.306;2022-10-16T13:48:05;29.00;;;25.95;;
33427;SDS011;19769;48.150;16.306;2022-10-16T13:50:32;30.40;;;27.48;;
33427;SDS011;19769;48.150;16.306;2022-10-16T13:53:11;31.60;;;28.33;;
33427;SDS011;19769;48.150;16.306;2022-10-16T13:55:38;30.13;;;27.00;;
33427;SDS011;19769;48.150;16.306;2022-10-16T13:58:07;32.20;;;28.92;;
33427;SDS011;19769;48.150;16.306;2022-10-16T14:00:33;29.90;;;27.00;;
33427;SDS011;19769;48.150;16.306;2022-10-16T14:03:04;29.63;;;26.73;;
33427;SDS011;19769;48.150;16.306;2022-10-16T14:05:31;31.83;;;28.60;;
33427;SDS011;19769;48.150;16.306;2022-10-16T14:07:57;30.92;;;27.65;;
33427;SDS011;19769;48.150;16.306;2022-10-16T14:10:25;29.45;;;26.45;;
33427;SDS011;19769;48.150;16.306;2022-10-16T14:12:56;29.60;;;26.70;;
33427;SDS011;19769;48.150;16.306;2022-10-16T14:15:22;29.08;;;25.98;;
33427;SDS011;19769;48.150;16.306;2022-10-16T14:17:50;29.50;;;26.48;;
33427;SDS011;19769;48.150;16.306;2022-10-16T14:20:16;28.77;;;25.90;;
33427;SDS011;19769;48.150;16.306;2022-10-16T14:22:42;28.55;;;25.58;;
33427;SDS011;19769;48.150;16.306;2022-10-16T14:25:42;30.45;;;27.38;;
33427;SDS011;19769;48.150;16.306;2022-10-16T14:28:20;31.17;;;27.90;;
33427;SDS011;19769;48.150;16.306;2022-10-16T14:30:54;31.77;;;28.48;;
33427;SDS011;19769;48.150;16.306;2022-10-16T14:33:22;31.98;;;28.38;;
33427;SDS011;19769;48.150;16.306;2022-10-16T14:35:59;33.10;;;29.60;;
33427;SDS011;19769;48.150;16.306;2022-10-16T14:38:31;33.38;;;29.77;;
33427;SDS011;19769;48.150;16.306;2022-10-16T14:40:58;40.92;;;34.63;;
33427;SDS011;19769;48.150;16.306;2022-10-16T14:46:10;37.63;;;32.47;;
33427;SDS011;19769;48.150;16.306;2022-10-16T14:48:42;38.10;;;33.08;;
33427;SDS011;19769;48.150;16.306;2022-10-16T14:51:15;38.83;;;33.28;;
33427;SDS011;19769;48.150;16.306;2022-10-16T14:53:42;39.95;;;33.63;;
33427;SDS011;19769;48.150;16.306;2022-10-16T14:56:30;36.58;;;32.22;;
33427;SDS011;19769;48.150;16.306;2022-10-16T14:58:55;39.70;;;33.70;;
33427;SDS011;19769;48.150;16.306;2022-10-16T15:01:21;39.17;;;33.78;;
33427;SDS011;19769;48.150;16.306;2022-10-16T15:03:47;44.83;;;36.53;;
33427;SDS011;19769;48.150;16.306;2022-10-16T15:06:14;43.60;;;35.05;;
33427;SDS011;19769;48.150;16.306;2022-10-16T15:08:41;40.42;;;33.13;;
33427;SDS011;19769;48.150;16.306;2022-10-16T15:11:11;41.90;;;35.50;;
33427;SDS011;19769;48.150;16.306;2022-10-16T15:13:38;45.70;;;36.15;;
33427;SDS011;19769;48.150;16.306;2022-10-16T15:16:04;42.60;;;34.75;;
33427;SDS011;19769;48.150;16.306;2022-10-16T15:18:30;41.55;;;34.25;;
33427;SDS011;19769;48.150;16.306;2022-10-16T15:20:56;43.92;;;35.05;;
33427;SDS011;19769;48.150;16.306;2022-10-16T15:23:22;42.95;;;35.33;;
33427;SDS011;19769;48.150;16.306;2022-10-16T15:25:52;45.47;;;36.25;;
33427;SDS011;19769;48.150;16.306;2022-10-16T15:28:19;45.10;;;36.63;;
33427;SDS011;19769;48.150;16.306;2022-10-16T15:30:46;43.95;;;36.53;;
33427;SDS011;19769;48.150;16.306;2022-10-16T15:33:16;47.08;;;38.38;;
33427;SDS011;19769;48.150;16.306;2022-10-16T15:35:42;47.92;;;38.45;;
33427;SDS011;19769;48.150;16.306;2022-10-16T15:38:12;46.08;;;36.90;;
33427;SDS011;19769;48.150;16.306;2022-10-16T15:40:39;48.13;;;38.78;;
33427;SDS011;19769;48.150;16.306;2022-10-16T15:43:05;48.15;;;37.75;;
33427;SDS011;19769;48.150;16.306;2022-10-16T15:45:31;49.05;;;38.90;;
33427;SDS011;19769;48.150;16.306;2022-10-16T15:47:57;49.50;;;39.05;;
33427;SDS011;19769;48.150;16.306;2022-10-16T15:50:23;51.03;;;39.85;;
33427;SDS011;19769;48.150;16.306;2022-10-16T15:52:50;51.70;;;39.90;;
33427;SDS011;19769;48.150;16.306;2022-10-16T15:55:16;51.05;;;40.00;;
33427;SDS011;19769;48.150;16.306;2022-10-16T15:57:44;53.03;;;40.47;;
33427;SDS011;19769;48.150;16.306;2022-10-16T16:00:12;52.83;;;41.13;;
33427;SDS011;19769;48.150;16.306;2022-10-16T16:02:39;53.38;;;41.63;;
33427;SDS011;19769;48.150;16.306;2022-10-16T16:05:06;53.42;;;40.95;;
33427;SDS011;19769;48.150;16.306;2022-10-16T16:07:33;56.55;;;43.80;;
33427;SDS011;19769;48.150;16.306;2022-10-16T16:10:00;55.03;;;41.97;;
33427;SDS011;19769;48.150;16.306;2022-10-16T16:12:27;55.53;;;42.65;;
33427;SDS011;19769;48.150;16.306;2022-10-16T16:14:55;55.40;;;43.50;;
33427;SDS011;19769;48.150;16.306;2022-10-16T16:17:21;55.13;;;43.55;;